sensor_id;sensor_type;location;lat;lon;timestamp;pressure;altitude;pressure_sealevel;temperature;humidity
42385;BME280;28042;43.986;22.860;2023-08-07T00:02:01;100459.09;;;16.40;100.00
42385;BME280;28042;43.986;22.860;2023-08-07T00:04:26;100431.47;;;16.24;100.00
42385;BME280;28042;43.986;22.860;2023-08-07T00:06:52;100465.09;;;16.37;100.00
42385;BME280;28042;43.986;22.860;2023-08-07T00:09:17;100445.59;;;16.16;100.00
42385;BME280;28042;43.986;22.860;2023-08-07T00:11:43;100449.09;;;16.11;100.00
42385;BME280;28042;43.986;22.860;2023-08-07T00:14:08;100449.19;;;16.04;100.00
42385;BME280;28042;43.986;22.860;2023-08-07T00:16:34;100479.00;;;16.19;100.00
42385;BME280;28042;43.986;22.860;2023-08-07T00:18:59;100488.34;;;16.18;100.00
42385;BME280;28042;43.986;22.860;2023-08-07T00:21:25;100492.63;;;16.14;100.00
42385;BME280;28042;43.986;22.860;2023-08-07T00:23:50;100467.53;;;15.99;100.00
42385;BME280;28042;43.986;22.860;2023-08-07T00:26:16;100461.06;;;15.93;100.00
42385;BME280;28042;43.986;22.860;2023-08-07T00:28:41;100489.88;;;16.02;100.00
42385;BME280;28042;43.986;22.860;2023-08-07T00:31:07;100461.41;;;15.85;100.00
42385;BME280;28042;43.986;22.860;2023-08-07T00:33:32;100488.22;;;16.01;100.00
42385;BME280;28042;43.986;22.860;2023-08-07T00:35:57;100470.25;;;15.87;100.00
42385;BME280;28042;43.986;22.860;2023-08-07T00:38:23;100460.31;;;15.86;100.00
42385;BME280;28042;43.986;22.860;2023-08-07T00:40:48;100468.81;;;15.96;100.00
42385;BME280;28042;43.986;22.860;2023-08-07T00:43:14;100495.13;;;16.16;100.00
42385;BME280;28042;43.986;22.860;2023-08-07T00:45:47;100514.63;;;16.14;100.00
42385;BME280;28042;43.986;22.860;2023-08-07T00:48:14;100503.28;;;16.10;100.00
42385;BME280;28042;43.986;22.860;2023-08-07T00:50:42;100492.03;;;16.00;100.00
42385;BME280;28042;43.986;22.860;2023-08-07T00:53:08;100505.66;;;16.07;100.00
42385;BME280;28042;43.986;22.860;2023-08-07T00:55:34;100525.41;;;16.16;100.00
42385;BME280;28042;43.986;22.860;2023-08-07T00:58:00;100500.06;;;16.02;100.00
42385;BME280;28042;43.986;22.860;2023-08-07T01:00:28;100528.28;;;16.21;100.00
42385;BME280;28042;43.986;22.860;2023-08-07T01:02:56;100525.06;;;16.12;100.00
42385;BME280;28042;43.986;22.860;2023-08-07T01:05:24;100522.06;;;16.14;100.00
42385;BME280;28042;43.986;22.860;2023-08-07T01:07:51;100495.16;;;15.92;100.00
42385;BME280;28042;43.986;22.860;2023-08-07T01:10:47;100517.88;;;15.99;100.00
42385;BME280;28042;43.986;22.860;2023-08-07T01:13:19;100528.88;;;15.99;100.00
42385;BME280;28042;43.986;22.860;2023-08-07T01:15:51;100532.69;;;15.98;100.00
42385;BME280;28042;43.986;22.860;2023-08-07T01:18:17;100535.44;;;15.98;100.00
42385;BME280;28042;43.986;22.860;2023-08-07T01:20:43;100569.22;;;16.17;100.00
42385;BME280;28042;43.986;22.860;2023-08-07T01:23:08;100543.00;;;15.91;100.00
42385;BME280;28042;43.986;22.860;2023-08-07T01:25:35;100536.28;;;15.87;100.00
42385;BME280;28042;43.986;22.860;2023-08-07T01:30:42;100566.69;;;15.92;100.00
42385;BME280;28042;43.986;22.860;2023-08-07T01:33:17;100536.50;;;15.74;100.00
42385;BME280;28042;43.986;22.860;2023-08-07T01:35:47;100523.09;;;15.66;100.00
42385;BME280;28042;43.986;22.860;2023-08-07T01:38:15;100543.19;;;15.78;100.00
42385;BME280;28042;43.986;22.860;2023-08-07T01:40:42;100555.03;;;15.78;100.00
42385;BME280;28042;43.986;22.860;2023-08-07T01:43:08;100559.00;;;15.82;100.00
42385;BME280;28042;43.986;22.860;2023-08-07T01:45:33;100536.50;;;15.74;100.00
42385;BME280;28042;43.986;22.860;2023-08-07T01:47:59;100560.53;;;15.78;100.00
42385;BME280;28042;43.986;22.860;2023-08-07T01:50:25;100553.25;;;15.84;100.00
42385;BME280;28042;43.986;22.860;2023-08-07T01:52:51;100527.03;;;15.70;100.00
42385;BME280;28042;43.986;22.860;2023-08-07T01:55:17;100554.94;;;15.85;100.00
42385;BME280;28042;43.986;22.860;2023-08-07T01:57:43;100556.47;;;15.81;100.00
42385;BME280;28042;43.986;22.860;2023-08-07T02:00:10;100551.44;;;15.78;100.00
42385;BME280;28042;43.986;22.860;2023-08-07T02:02:36;100534.63;;;15.56;100.00
42385;BME280;28042;43.986;22.860;2023-08-07T02:05:02;100528.28;;;15.55;100.00
42385;BME280;28042;43.986;22.860;2023-08-07T02:07:28;100558.13;;;15.70;100.00
42385;BME280;28042;43.986;22.860;2023-08-07T02:09:54;100528.16;;;15.50;100.00
42385;BME280;28042;43.986;22.860;2023-08-07T02:12:19;100560.50;;;15.67;100.00
42385;BME280;28042;43.986;22.860;2023-08-07T02:14:44;100555.13;;;15.72;100.00
42385;BME280;28042;43.986;22.860;2023-08-07T02:17:10;100547.44;;;15.62;100.00
42385;BME280;28042;43.986;22.860;2023-08-07T02:19:35;100509.84;;;15.44;100.00
42385;BME280;28042;43.986;22.860;2023-08-07T02:22:01;100534.72;;;15.49;100.00
42385;BME280;28042;43.986;22.860;2023-08-07T02:24:27;100545.34;;;15.64;100.00
42385;BME280;28042;43.986;22.860;2023-08-07T02:26:52;100546.28;;;15.70;100.00
42385;BME280;28042;43.986;22.860;2023-08-07T02:29:18;100532.47;;;15.58;100.00
42385;BME280;28042;43.986;22.860;2023-08-07T02:31:43;100520.16;;;15.49;100.00
42385;BME280;28042;43.986;22.860;2023-08-07T02:34:08;100547.59;;;15.67;100.00
42385;BME280;28042;43.986;22.860;2023-08-07T02:36:34;100541.75;;;15.64;100.00
42385;BME280;28042;43.986;22.860;2023-08-07T02:38:59;100548.06;;;15.64;100.00
42385;BME280;28042;43.986;22.860;2023-08-07T02:41:25;100540.34;;;15.54;100.00
42385;BME280;28042;43.986;22.860;2023-08-07T02:43:50;100519.16;;;15.43;100.00
42385;BME280;28042;43.986;22.860;2023-08-07T02:46:16;100519.31;;;15.48;100.00
42385;BME280;28042;43.986;22.860;2023-08-07T02:48:43;100535.75;;;15.67;100.00
42385;BME280;28042;43.986;22.860;2023-08-07T02:51:08;100537.59;;;15.73;100.00
42385;BME280;28042;43.986;22.860;2023-08-07T02:53:34;100499.00;;;15.49;100.00
42385;BME280;28042;43.986;22.860;2023-08-07T02:55:59;100500.81;;;15.55;100.00
42385;BME280;28042;43.986;22.860;2023-08-07T02:58:25;100532.69;;;15.75;100.00
42385;BME280;28042;43.986;22.860;2023-08-07T03:00:50;100500.81;;;15.55;100.00
42385;BME280;28042;43.986;22.860;2023-08-07T03:03:16;100529.44;;;15.78;100.00
42385;BME280;28042;43.986;22.860;2023-08-07T03:05:50;100525.63;;;15.79;100.00
42385;BME280;28042;43.986;22.860;2023-08-07T03:08:16;100536.16;;;15.82;100.00
42385;BME280;28042;43.986;22.860;2023-08-07T03:10:42;100539.25;;;15.74;100.00
42385;BME280;28042;43.986;22.860;2023-08-07T03:13:07;100540.44;;;15.78;100.00
42385;BME280;28042;43.986;22.860;2023-08-07T03:15:33;100560.91;;;15.82;100.00
42385;BME280;28042;43.986;22.860;2023-08-07T03:17:58;100527.38;;;15.62;100.00
42385;BME280;28042;43.986;22.860;2023-08-07T03:20:23;100532.53;;;15.70;100.00
42385;BME280;28042;43.986;22.860;2023-08-07T03:22:49;100558.38;;;15.80;100.00
42385;BME280;28042;43.986;22.860;2023-08-07T03:25:14;100579.44;;;15.87;100.00
42385;BME280;28042;43.986;22.860;2023-08-07T03:27:40;100580.50;;;15.74;100.00
42385;BME280;28042;43.986;22.860;2023-08-07T03:30:06;100558.00;;;15.65;100.00
42385;BME280;28042;43.986;22.860;2023-08-07T03:32:31;100587.94;;;15.85;100.00
42385;BME280;28042;43.986;22.860;2023-08-07T03:34:57;100585.34;;;15.90;100.00
42385;BME280;28042;43.986;22.860;2023-08-07T03:37:22;100554.69;;;15.75;100.00
42385;BME280;28042;43.986;22.860;2023-08-07T03:39:48;100559.34;;;15.74;100.00
42385;BME280;28042;43.986;22.860;2023-08-07T03:42:14;100581.38;;;15.98;100.00
42385;BME280;28042;43.986;22.860;2023-08-07T03:44:42;100560.09;;;15.81;100.00
42385;BME280;28042;43.986;22.860;2023-08-07T03:47:07;100587.25;;;16.01;100.00
42385;BME280;28042;43.986;22.860;2023-08-07T03:49:33;100592.28;;;16.04;100.00
42385;BME280;28042;43.986;22.860;2023-08-07T03:51:58;100559.84;;;15.95;100.00
42385;BME280;28042;43.986;22.860;2023-08-07T03:54:24;100599.72;;;16.16;100.00
42385;BME280;28042;43.986;22.860;2023-08-07T03:56:50;100593.50;;;16.32;100.00
42385;BME280;28042;43.986;22.860;2023-08-07T03:59:16;100592.22;;;16.81;100.00
42385;BME280;28042;43.986;22.860;2023-08-07T04:01:42;100599.19;;;17.24;100.00
42385;BME280;28042;43.986;22.860;2023-08-07T04:04:08;100596.44;;;17.52;100.00
42385;BME280;28042;43.986;22.860;2023-08-07T04:06:33;100574.22;;;17.88;100.00
42385;BME280;28042;43.986;22.860;2023-08-07T04:08:58;100582.63;;;18.43;100.00
42385;BME280;28042;43.986;22.860;2023-08-07T04:11:24;100576.31;;;18.64;100.00
42385;BME280;28042;43.986;22.860;2023-08-07T04:13:50;100566.66;;;19.06;100.00
42385;BME280;28042;43.986;22.860;2023-08-07T04:16:16;100587.66;;;19.51;99.20
42385;BME280;28042;43.986;22.860;2023-08-07T04:18:42;100569.84;;;19.63;95.86
42385;BME280;28042;43.986;22.860;2023-08-07T04:21:07;100554.38;;;19.94;92.45
42385;BME280;28042;43.986;22.860;2023-08-07T04:23:33;100574.94;;;20.03;91.91
42385;BME280;28042;43.986;22.860;2023-08-07T04:25:59;100543.94;;;20.07;90.62
42385;BME280;28042;43.986;22.860;2023-08-07T04:28:24;100554.00;;;20.18;90.89
42385;BME280;28042;43.986;22.860;2023-08-07T04:30:51;100569.72;;;20.07;90.15
42385;BME280;28042;43.986;22.860;2023-08-07T04:33:17;100535.81;;;19.95;89.89
42385;BME280;28042;43.986;22.860;2023-08-07T04:35:43;100533.59;;;19.92;88.35
42385;BME280;28042;43.986;22.860;2023-08-07T04:38:08;100553.25;;;19.95;88.86
42385;BME280;28042;43.986;22.860;2023-08-07T04:40:34;100533.88;;;19.95;89.51
42385;BME280;28042;43.986;22.860;2023-08-07T04:43:00;100540.81;;;20.30;87.83
42385;BME280;28042;43.986;22.860;2023-08-07T04:45:26;100560.94;;;20.52;85.42
42385;BME280;28042;43.986;22.860;2023-08-07T04:47:51;100578.84;;;20.77;85.33
42385;BME280;28042;43.986;22.860;2023-08-07T04:50:17;100551.25;;;21.07;83.29
42385;BME280;28042;43.986;22.860;2023-08-07T04:52:43;100571.22;;;21.09;82.98
42385;BME280;28042;43.986;22.860;2023-08-07T04:55:08;100566.22;;;21.06;81.21
42385;BME280;28042;43.986;22.860;2023-08-07T04:57:34;100567.88;;;21.07;82.70
42385;BME280;28042;43.986;22.860;2023-08-07T04:59:59;100598.91;;;21.57;80.49
42385;BME280;28042;43.986;22.860;2023-08-07T05:02:24;100603.06;;;21.59;79.69
42385;BME280;28042;43.986;22.860;2023-08-07T05:04:50;100585.91;;;21.72;78.26
42385;BME280;28042;43.986;22.860;2023-08-07T05:07:15;100597.03;;;21.83;76.90
42385;BME280;28042;43.986;22.860;2023-08-07T05:09:41;100615.81;;;21.50;77.72
42385;BME280;28042;43.986;22.860;2023-08-07T05:12:07;100596.47;;;21.81;77.84
42385;BME280;28042;43.986;22.860;2023-08-07T05:14:32;100590.09;;;21.90;76.80
42385;BME280;28042;43.986;22.860;2023-08-07T05:16:58;100604.31;;;22.14;75.23
42385;BME280;28042;43.986;22.860;2023-08-07T05:19:24;100588.19;;;22.52;74.69
42385;BME280;28042;43.986;22.860;2023-08-07T05:21:50;100595.38;;;22.63;72.66
42385;BME280;28042;43.986;22.860;2023-08-07T05:24:19;100598.97;;;22.74;71.65
42385;BME280;28042;43.986;22.860;2023-08-07T05:26:45;100585.13;;;22.53;71.15
42385;BME280;28042;43.986;22.860;2023-08-07T05:29:11;100608.72;;;22.71;71.30
42385;BME280;28042;43.986;22.860;2023-08-07T05:31:36;100612.34;;;22.87;69.01
42385;BME280;28042;43.986;22.860;2023-08-07T05:34:02;100607.53;;;23.13;69.68
42385;BME280;28042;43.986;22.860;2023-08-07T05:36:28;100612.53;;;23.21;68.81
42385;BME280;28042;43.986;22.860;2023-08-07T05:38:55;100602.31;;;22.96;67.83
42385;BME280;28042;43.986;22.860;2023-08-07T05:41:20;100605.91;;;22.92;67.67
42385;BME280;28042;43.986;22.860;2023-08-07T05:43:46;100617.63;;;22.89;66.52
42385;BME280;28042;43.986;22.860;2023-08-07T05:46:11;100595.53;;;23.18;66.21
42385;BME280;28042;43.986;22.860;2023-08-07T05:48:37;100607.00;;;23.11;65.73
42385;BME280;28042;43.986;22.860;2023-08-07T05:51:02;100634.09;;;23.60;66.25
42385;BME280;28042;43.986;22.860;2023-08-07T05:53:28;100631.38;;;23.39;65.04
42385;BME280;28042;43.986;22.860;2023-08-07T05:55:53;100638.44;;;23.81;64.71
42385;BME280;28042;43.986;22.860;2023-08-07T05:58:21;100644.56;;;23.78;64.59
42385;BME280;28042;43.986;22.860;2023-08-07T06:00:46;100653.91;;;23.97;62.73
42385;BME280;28042;43.986;22.860;2023-08-07T06:03:12;100651.41;;;24.01;61.32
42385;BME280;28042;43.986;22.860;2023-08-07T06:05:37;100639.09;;;23.58;60.53
42385;BME280;28042;43.986;22.860;2023-08-07T06:08:03;100655.09;;;23.91;61.36
42385;BME280;28042;43.986;22.860;2023-08-07T06:10:28;100657.59;;;23.93;61.12
42385;BME280;28042;43.986;22.860;2023-08-07T06:12:54;100664.66;;;23.75;61.86
42385;BME280;28042;43.986;22.860;2023-08-07T06:15:20;100664.41;;;23.66;62.63
42385;BME280;28042;43.986;22.860;2023-08-07T06:17:45;100669.09;;;23.76;61.27
42385;BME280;28042;43.986;22.860;2023-08-07T06:20:11;100647.44;;;23.58;61.74
42385;BME280;28042;43.986;22.860;2023-08-07T06:22:39;100644.97;;;23.51;63.20
42385;BME280;28042;43.986;22.860;2023-08-07T06:25:05;100640.78;;;23.64;62.24
42385;BME280;28042;43.986;22.860;2023-08-07T06:27:32;100649.91;;;23.75;63.13
42385;BME280;28042;43.986;22.860;2023-08-07T06:29:57;100662.50;;;24.11;61.17
42385;BME280;28042;43.986;22.860;2023-08-07T06:32:23;100660.75;;;23.71;62.70
42385;BME280;28042;43.986;22.860;2023-08-07T06:34:48;100663.03;;;23.54;63.63
42385;BME280;28042;43.986;22.860;2023-08-07T06:37:14;100662.09;;;23.14;62.45
42385;BME280;28042;43.986;22.860;2023-08-07T06:39:39;100662.66;;;23.01;64.47
42385;BME280;28042;43.986;22.860;2023-08-07T06:42:04;100660.13;;;23.09;67.37
42385;BME280;28042;43.986;22.860;2023-08-07T06:44:30;100660.44;;;22.82;66.08
42385;BME280;28042;43.986;22.860;2023-08-07T06:46:55;100657.94;;;22.40;65.14
42385;BME280;28042;43.986;22.860;2023-08-07T06:49:21;100636.25;;;22.07;63.86
42385;BME280;28042;43.986;22.860;2023-08-07T06:51:46;100674.28;;;22.01;64.68
42385;BME280;28042;43.986;22.860;2023-08-07T06:54:12;100641.38;;;21.62;65.35
42385;BME280;28042;43.986;22.860;2023-08-07T06:56:37;100667.59;;;21.92;67.53
42385;BME280;28042;43.986;22.860;2023-08-07T06:59:06;100648.09;;;21.77;67.34
42385;BME280;28042;43.986;22.860;2023-08-07T07:01:31;100640.91;;;21.81;67.22
42385;BME280;28042;43.986;22.860;2023-08-07T07:03:57;100659.25;;;21.97;66.51
42385;BME280;28042;43.986;22.860;2023-08-07T07:06:23;100663.75;;;22.13;65.93
42385;BME280;28042;43.986;22.860;2023-08-07T07:08:50;100672.09;;;22.08;65.37
42385;BME280;28042;43.986;22.860;2023-08-07T07:11:19;100676.28;;;22.11;66.38
42385;BME280;28042;43.986;22.860;2023-08-07T07:13:45;100653.22;;;22.31;66.38
42385;BME280;28042;43.986;22.860;2023-08-07T07:16:11;100688.25;;;22.32;65.80
42385;BME280;28042;43.986;22.860;2023-08-07T07:18:38;100676.03;;;22.27;65.05
42385;BME280;28042;43.986;22.860;2023-08-07T07:21:04;100684.38;;;22.38;63.51
42385;BME280;28042;43.986;22.860;2023-08-07T07:23:29;100643.72;;;22.06;62.55
42385;BME280;28042;43.986;22.860;2023-08-07T07:25:55;100686.03;;;22.28;63.41
42385;BME280;28042;43.986;22.860;2023-08-07T07:28:22;100686.31;;;22.42;61.75
42385;BME280;28042;43.986;22.860;2023-08-07T07:30:47;100684.06;;;22.29;62.65
42385;BME280;28042;43.986;22.860;2023-08-07T07:33:13;100665.94;;;22.01;62.57
42385;BME280;28042;43.986;22.860;2023-08-07T07:35:39;100674.88;;;22.08;63.77
42385;BME280;28042;43.986;22.860;2023-08-07T07:38:05;100674.06;;;22.23;62.92
42385;BME280;28042;43.986;22.860;2023-08-07T07:40:31;100648.22;;;22.17;62.22
42385;BME280;28042;43.986;22.860;2023-08-07T07:42:56;100637.13;;;22.17;62.75
42385;BME280;28042;43.986;22.860;2023-08-07T07:45:22;100660.47;;;22.42;62.25
42385;BME280;28042;43.986;22.860;2023-08-07T07:47:47;100640.44;;;22.29;61.80
42385;BME280;28042;43.986;22.860;2023-08-07T07:50:13;100675.19;;;22.47;63.03
42385;BME280;28042;43.986;22.860;2023-08-07T07:52:39;100669.38;;;22.54;60.69
42385;BME280;28042;43.986;22.860;2023-08-07T07:55:05;100652.66;;;22.64;61.74
42385;BME280;28042;43.986;22.860;2023-08-07T07:57:30;100662.94;;;22.74;61.05
42385;BME280;28042;43.986;22.860;2023-08-07T07:59:56;100663.78;;;22.90;60.41
42385;BME280;28042;43.986;22.860;2023-08-07T08:02:22;100670.44;;;23.09;60.17
42385;BME280;28042;43.986;22.860;2023-08-07T08:04:50;100650.41;;;23.02;58.11
42385;BME280;28042;43.986;22.860;2023-08-07T08:07:16;100679.84;;;23.38;56.83
42385;BME280;28042;43.986;22.860;2023-08-07T08:09:41;100678.00;;;23.78;57.36
42385;BME280;28042;43.986;22.860;2023-08-07T08:12:07;100685.94;;;24.05;54.70
42385;BME280;28042;43.986;22.860;2023-08-07T08:14:33;100660.34;;;23.98;52.89
42385;BME280;28042;43.986;22.860;2023-08-07T08:16:58;100682.03;;;24.50;53.77
42385;BME280;28042;43.986;22.860;2023-08-07T08:19:24;100675.53;;;24.21;51.25
42385;BME280;28042;43.986;22.860;2023-08-07T08:21:49;100687.38;;;23.97;51.10
42385;BME280;28042;43.986;22.860;2023-08-07T08:24:15;100684.78;;;23.52;52.03
42385;BME280;28042;43.986;22.860;2023-08-07T08:26:40;100703.16;;;23.53;51.83
42385;BME280;28042;43.986;22.860;2023-08-07T08:29:06;100679.00;;;23.38;51.59
42385;BME280;28042;43.986;22.860;2023-08-07T08:31:33;100703.47;;;23.46;52.52
42385;BME280;28042;43.986;22.860;2023-08-07T08:33:59;100697.72;;;23.07;52.78
42385;BME280;28042;43.986;22.860;2023-08-07T08:36:25;100713.88;;;22.95;53.74
42385;BME280;28042;43.986;22.860;2023-08-07T08:38:50;100710.53;;;22.93;54.96
42385;BME280;28042;43.986;22.860;2023-08-07T08:41:17;100700.50;;;22.92;55.97
42385;BME280;28042;43.986;22.860;2023-08-07T08:43:45;100706.59;;;23.19;54.74
42385;BME280;28042;43.986;22.860;2023-08-07T08:46:14;100704.66;;;23.09;53.54
42385;BME280;28042;43.986;22.860;2023-08-07T08:48:40;100703.84;;;22.99;54.92
42385;BME280;28042;43.986;22.860;2023-08-07T08:51:08;100685.47;;;23.13;53.45
42385;BME280;28042;43.986;22.860;2023-08-07T08:53:34;100706.59;;;23.24;53.75
42385;BME280;28042;43.986;22.860;2023-08-07T08:56:00;100680.66;;;23.39;53.74
42385;BME280;28042;43.986;22.860;2023-08-07T08:58:27;100718.66;;;23.79;53.09
42385;BME280;28042;43.986;22.860;2023-08-07T09:00:53;100707.97;;;24.02;52.41
42385;BME280;28042;43.986;22.860;2023-08-07T09:03:19;100707.81;;;24.27;52.60
42385;BME280;28042;43.986;22.860;2023-08-07T09:05:45;100672.09;;;23.90;52.23
42385;BME280;28042;43.986;22.860;2023-08-07T09:08:12;100715.28;;;23.87;53.33
42385;BME280;28042;43.986;22.860;2023-08-07T09:10:39;100708.09;;;23.76;53.18
42385;BME280;28042;43.986;22.860;2023-08-07T09:13:08;100692.84;;;23.53;54.08
42385;BME280;28042;43.986;22.860;2023-08-07T09:15:37;100679.78;;;23.44;54.46
42385;BME280;28042;43.986;22.860;2023-08-07T09:18:06;100709.28;;;23.60;53.29
42385;BME280;28042;43.986;22.860;2023-08-07T09:20:36;100690.78;;;23.84;52.91
42385;BME280;28042;43.986;22.860;2023-08-07T09:23:04;100668.34;;;24.10;53.31
42385;BME280;28042;43.986;22.860;2023-08-07T09:25:31;100695.94;;;24.06;50.93
42385;BME280;28042;43.986;22.860;2023-08-07T09:27:57;100695.25;;;23.85;52.54
42385;BME280;28042;43.986;22.860;2023-08-07T09:30:29;100698.03;;;23.80;53.55
42385;BME280;28042;43.986;22.860;2023-08-07T09:32:57;100692.94;;;23.97;53.93
42385;BME280;28042;43.986;22.860;2023-08-07T09:35:23;100705.44;;;24.05;51.85
42385;BME280;28042;43.986;22.860;2023-08-07T09:37:49;100689.22;;;23.53;53.93
42385;BME280;28042;43.986;22.860;2023-08-07T09:40:15;100699.75;;;23.81;54.02
42385;BME280;28042;43.986;22.860;2023-08-07T09:42:41;100676.88;;;23.84;52.28
42385;BME280;28042;43.986;22.860;2023-08-07T09:45:33;100706.53;;;24.09;52.75
42385;BME280;28042;43.986;22.860;2023-08-07T09:48:05;100690.59;;;24.20;53.25
42385;BME280;28042;43.986;22.860;2023-08-07T09:50:36;100664.06;;;24.28;52.64
42385;BME280;28042;43.986;22.860;2023-08-07T09:53:02;100685.00;;;24.25;51.12
42385;BME280;28042;43.986;22.860;2023-08-07T09:55:27;100691.19;;;24.17;52.97
42385;BME280;28042;43.986;22.860;2023-08-07T09:57:53;100681.03;;;24.31;51.31
42385;BME280;28042;43.986;22.860;2023-08-07T10:00:19;100675.22;;;24.22;52.37
42385;BME280;28042;43.986;22.860;2023-08-07T10:02:49;100659.47;;;24.08;52.68
42385;BME280;28042;43.986;22.860;2023-08-07T10:05:15;100668.50;;;23.84;52.69
42385;BME280;28042;43.986;22.860;2023-08-07T10:07:41;100660.66;;;23.91;53.06
42385;BME280;28042;43.986;22.860;2023-08-07T10:10:07;100694.66;;;23.88;53.70
42385;BME280;28042;43.986;22.860;2023-08-07T10:12:33;100650.34;;;23.92;53.42
42385;BME280;28042;43.986;22.860;2023-08-07T10:14:59;100688.50;;;23.96;52.45
42385;BME280;28042;43.986;22.860;2023-08-07T10:17:25;100653.44;;;23.90;52.68
42385;BME280;28042;43.986;22.860;2023-08-07T10:19:52;100672.44;;;24.22;51.90
42385;BME280;28042;43.986;22.860;2023-08-07T10:22:24;100645.91;;;24.35;51.43
42385;BME280;28042;43.986;22.860;2023-08-07T10:24:50;100683.22;;;24.73;49.96
42385;BME280;28042;43.986;22.860;2023-08-07T10:27:20;100640.88;;;24.95;49.51
42385;BME280;28042;43.986;22.860;2023-08-07T10:29:49;100664.09;;;25.20;49.92
42385;BME280;28042;43.986;22.860;2023-08-07T10:32:18;100671.13;;;24.83;50.08
42385;BME280;28042;43.986;22.860;2023-08-07T10:34:51;100668.19;;;24.98;49.75
42385;BME280;28042;43.986;22.860;2023-08-07T10:37:42;100666.00;;;25.24;49.56
42385;BME280;28042;43.986;22.860;2023-08-07T10:40:09;100649.09;;;25.11;48.13
42385;BME280;28042;43.986;22.860;2023-08-07T10:43:12;100691.88;;;25.06;47.99
42385;BME280;28042;43.986;22.860;2023-08-07T10:45:38;100681.13;;;24.89;48.61
42385;BME280;28042;43.986;22.860;2023-08-07T10:48:08;100683.69;;;25.15;49.46
42385;BME280;28042;43.986;22.860;2023-08-07T10:51:04;100673.66;;;25.14;48.26
42385;BME280;28042;43.986;22.860;2023-08-07T10:53:30;100676.97;;;25.16;49.10
42385;BME280;28042;43.986;22.860;2023-08-07T10:55:56;100661.59;;;25.18;47.18
42385;BME280;28042;43.986;22.860;2023-08-07T10:58:32;100668.72;;;25.05;48.03
42385;BME280;28042;43.986;22.860;2023-08-07T11:03:47;100647.09;;;25.16;48.53
42385;BME280;28042;43.986;22.860;2023-08-07T11:06:13;100629.34;;;25.02;48.03
42385;BME280;28042;43.986;22.860;2023-08-07T11:08:40;100659.41;;;25.15;48.45
42385;BME280;28042;43.986;22.860;2023-08-07T11:11:06;100642.47;;;25.06;47.82
42385;BME280;28042;43.986;22.860;2023-08-07T11:13:33;100639.06;;;25.09;47.91
42385;BME280;28042;43.986;22.860;2023-08-07T11:16:00;100654.34;;;24.88;49.04
42385;BME280;28042;43.986;22.860;2023-08-07T11:18:27;100634.88;;;25.12;48.90
42385;BME280;28042;43.986;22.860;2023-08-07T11:20:54;100630.69;;;24.80;47.25
42385;BME280;28042;43.986;22.860;2023-08-07T11:23:25;100640.81;;;25.05;47.97
42385;BME280;28042;43.986;22.860;2023-08-07T11:25:51;100662.31;;;25.05;47.86
42385;BME280;28042;43.986;22.860;2023-08-07T11:28:21;100664.03;;;24.96;49.22
42385;BME280;28042;43.986;22.860;2023-08-07T11:30:52;100662.38;;;24.95;49.98
42385;BME280;28042;43.986;22.860;2023-08-07T11:33:21;100666.97;;;25.09;48.34
42385;BME280;28042;43.986;22.860;2023-08-07T11:35:48;100657.78;;;25.33;48.46
42385;BME280;28042;43.986;22.860;2023-08-07T11:38:34;100646.50;;;25.19;47.39
42385;BME280;28042;43.986;22.860;2023-08-07T11:41:01;100667.19;;;25.42;47.81
42385;BME280;28042;43.986;22.860;2023-08-07T11:43:27;100664.34;;;25.47;45.22
42385;BME280;28042;43.986;22.860;2023-08-07T11:45:54;100635.53;;;25.04;45.75
42385;BME280;28042;43.986;22.860;2023-08-07T11:48:24;100619.13;;;24.92;46.05
42385;BME280;28042;43.986;22.860;2023-08-07T11:50:52;100651.97;;;25.05;47.92
42385;BME280;28042;43.986;22.860;2023-08-07T11:53:18;100661.66;;;25.13;46.60
42385;BME280;28042;43.986;22.860;2023-08-07T11:55:58;100644.72;;;24.99;47.31
42385;BME280;28042;43.986;22.860;2023-08-07T11:58:25;100661.72;;;25.32;45.87
42385;BME280;28042;43.986;22.860;2023-08-07T12:00:51;100639.56;;;25.41;44.37
42385;BME280;28042;43.986;22.860;2023-08-07T12:03:30;100657.63;;;25.91;44.72
42385;BME280;28042;43.986;22.860;2023-08-07T12:05:57;100662.94;;;25.69;44.88
42385;BME280;28042;43.986;22.860;2023-08-07T12:08:24;100630.31;;;25.64;44.39
42385;BME280;28042;43.986;22.860;2023-08-07T12:10:53;100628.25;;;25.70;44.32
42385;BME280;28042;43.986;22.860;2023-08-07T12:13:23;100621.72;;;25.79;45.04
42385;BME280;28042;43.986;22.860;2023-08-07T12:15:51;100632.19;;;25.69;43.88
42385;BME280;28042;43.986;22.860;2023-08-07T12:18:19;100613.44;;;25.50;44.19
42385;BME280;28042;43.986;22.860;2023-08-07T12:20:44;100618.53;;;25.67;44.00
42385;BME280;28042;43.986;22.860;2023-08-07T12:23:17;100603.47;;;25.44;43.15
42385;BME280;28042;43.986;22.860;2023-08-07T12:25:43;100634.34;;;25.77;43.12
42385;BME280;28042;43.986;22.860;2023-08-07T12:28:08;100637.00;;;25.87;43.16
42385;BME280;28042;43.986;22.860;2023-08-07T12:30:34;100637.22;;;26.28;42.44
42385;BME280;28042;43.986;22.860;2023-08-07T12:33:00;100612.28;;;26.13;41.98
42385;BME280;28042;43.986;22.860;2023-08-07T12:35:26;100613.03;;;26.18;41.00
42385;BME280;28042;43.986;22.860;2023-08-07T12:37:51;100643.41;;;26.44;42.33
42385;BME280;28042;43.986;22.860;2023-08-07T12:40:17;100604.84;;;26.41;40.25